createdAt,value
2017-07-08T00:01:41.773Z,23.86
2017-07-08T00:04:10.106Z,24.01
2017-07-08T00:06:38.469Z,24.03
2017-07-08T00:09:07.129Z,23.90
2017-07-08T00:11:35.459Z,23.84
2017-07-08T00:14:03.822Z,23.62
2017-07-08T00:16:32.888Z,23.93
2017-07-08T00:19:01.217Z,23.76
2017-07-08T00:21:29.573Z,23.63
2017-07-08T00:23:58.590Z,23.40
2017-07-08T00:26:26.946Z,23.64
2017-07-08T00:28:55.274Z,23.67
2017-07-08T00:31:23.958Z,23.79
2017-07-08T00:33:52.326Z,23.52
2017-07-08T00:36:20.670Z,23.71
2017-07-08T00:38:49.736Z,23.69
2017-07-08T00:41:18.065Z,23.60
2017-07-08T00:43:46.407Z,23.64
2017-07-08T00:46:15.084Z,23.59
2017-07-08T00:48:43.418Z,23.53
2017-07-08T00:51:11.765Z,23.51
2017-07-08T00:53:40.453Z,23.25
2017-07-08T00:56:08.819Z,23.34
2017-07-08T00:58:37.169Z,23.53
2017-07-08T01:01:06.165Z,23.33
2017-07-08T01:03:34.526Z,23.40
2017-07-08T01:06:03.636Z,23.47
2017-07-08T01:08:33.258Z,23.36
2017-07-08T01:11:01.590Z,23.35
2017-07-08T01:13:29.931Z,23.48
2017-07-08T01:15:58.615Z,23.37
2017-07-08T01:18:26.989Z,23.35
2017-07-08T01:20:55.339Z,23.48
2017-07-08T01:23:24.434Z,23.36
2017-07-08T01:25:52.771Z,23.19
2017-07-08T01:28:21.113Z,23.51
2017-07-08T01:30:49.806Z,23.42
2017-07-08T01:33:18.152Z,23.16
2017-07-08T01:35:47.362Z,23.24
2017-07-08T01:38:16.042Z,23.11
2017-07-08T01:40:44.422Z,23.15
2017-07-08T01:43:12.765Z,23.11
2017-07-08T01:45:41.547Z,23.07
2017-07-08T01:48:09.908Z,22.88
2017-07-08T01:50:38.249Z,22.93
2017-07-08T01:53:07.204Z,22.79
2017-07-08T01:55:35.570Z,22.80
2017-07-08T01:58:03.914Z,22.68
2017-07-08T02:00:32.615Z,22.72
2017-07-08T02:03:00.978Z,22.86
2017-07-08T02:05:29.328Z,22.69
2017-07-08T02:07:58.241Z,22.63
2017-07-08T02:10:26.580Z,22.65
2017-07-08T02:12:54.930Z,22.66
2017-07-08T02:15:23.592Z,22.61
2017-07-08T02:17:52.006Z,22.43
2017-07-08T02:20:20.371Z,22.50
2017-07-08T02:22:49.133Z,22.48
2017-07-08T02:25:17.488Z,22.45
2017-07-08T02:27:45.836Z,22.50
2017-07-08T02:30:14.690Z,22.37
2017-07-08T02:32:43.025Z,22.48
2017-07-08T02:35:11.383Z,22.28
2017-07-08T02:37:40.045Z,22.29
2017-07-08T02:40:08.378Z,22.19
2017-07-08T02:42:36.738Z,22.24
2017-07-08T02:45:05.472Z,22.35
2017-07-08T02:47:33.823Z,22.40
2017-07-08T02:50:02.167Z,22.27
2017-07-08T02:52:30.897Z,22.18
2017-07-08T02:54:59.247Z,22.24
2017-07-08T02:57:27.575Z,22.31
2017-07-08T02:59:56.973Z,22.30
2017-07-08T03:02:25.308Z,22.21
2017-07-08T03:04:53.630Z,22.29
2017-07-08T03:07:22.257Z,22.38
2017-07-08T03:09:50.612Z,22.38
2017-07-08T03:12:18.942Z,22.29
2017-07-08T03:14:47.783Z,22.27
2017-07-08T03:17:16.124Z,22.28
2017-07-08T03:19:44.455Z,22.31
2017-07-08T03:22:13.078Z,22.25
2017-07-08T03:24:41.435Z,22.06
2017-07-08T03:27:09.765Z,22.09
2017-07-08T03:29:38.438Z,22.01
2017-07-08T03:32:07.545Z,21.89
2017-07-08T03:34:36.637Z,21.94
2017-07-08T03:37:06.386Z,22.11
2017-07-08T03:39:34.744Z,22.17
2017-07-08T03:42:03.086Z,22.30
2017-07-08T03:44:31.753Z,22.27
2017-07-08T03:47:00.081Z,22.33
2017-07-08T03:49:29.192Z,22.31
2017-07-08T03:51:57.850Z,22.36
2017-07-08T03:54:26.941Z,22.29
2017-07-08T03:56:56.080Z,22.24
2017-07-08T03:59:24.802Z,22.38
2017-07-08T04:01:53.154Z,22.34
2017-07-08T04:04:21.477Z,22.44
2017-07-08T04:06:50.909Z,22.24
2017-07-08T04:09:19.255Z,22.32
2017-07-08T04:11:48.379Z,22.42
2017-07-08T04:14:17.172Z,22.32
2017-07-08T04:16:45.515Z,22.38
2017-07-08T04:19:13.869Z,22.29
2017-07-08T04:21:42.694Z,22.31
2017-07-08T04:24:11.066Z,22.16
2017-07-08T04:26:39.453Z,21.92
2017-07-08T04:29:08.103Z,22.07
2017-07-08T04:31:36.474Z,22.23
2017-07-08T04:34:04.815Z,22.20
2017-07-08T04:36:33.726Z,22.09
2017-07-08T04:39:02.069Z,22.12
2017-07-08T04:41:30.417Z,22.01
2017-07-08T04:43:59.207Z,22.05
2017-07-08T04:46:27.558Z,22.00
2017-07-08T04:48:55.886Z,21.95
2017-07-08T04:51:24.800Z,22.13
2017-07-08T04:53:53.139Z,21.98
2017-07-08T04:56:21.479Z,21.78
2017-07-08T04:58:50.243Z,21.89
2017-07-08T05:01:18.586Z,21.91
2017-07-08T05:03:46.927Z,21.68
2017-07-08T05:06:16.087Z,21.80
2017-07-08T05:08:44.435Z,21.75
2017-07-08T05:11:12.797Z,21.89
2017-07-08T05:13:41.543Z,21.82
2017-07-08T05:16:09.887Z,21.52
2017-07-08T05:18:38.247Z,21.59
2017-07-08T05:21:06.990Z,21.87
2017-07-08T05:23:35.335Z,21.96
2017-07-08T05:26:03.702Z,22.11
2017-07-08T05:28:32.417Z,22.07
2017-07-08T05:31:00.777Z,22.00
2017-07-08T05:33:29.106Z,21.96
2017-07-08T05:35:57.795Z,22.15
2017-07-08T05:38:26.144Z,22.24
2017-07-08T05:40:54.510Z,22.40
2017-07-08T05:43:23.139Z,22.36
2017-07-08T05:45:51.499Z,22.60
2017-07-08T05:48:19.858Z,22.51
2017-07-08T05:50:48.893Z,22.42
2017-07-08T05:53:17.274Z,22.43
2017-07-08T05:55:45.781Z,22.43
2017-07-08T05:58:14.466Z,22.28
2017-07-08T06:00:42.810Z,22.45
2017-07-08T06:03:11.161Z,22.39
2017-07-08T06:05:39.805Z,22.36
2017-07-08T06:08:08.143Z,22.06
2017-07-08T06:10:36.510Z,21.99
2017-07-08T06:13:05.483Z,22.11
2017-07-08T06:15:33.820Z,21.91
2017-07-08T06:18:02.180Z,22.18
2017-07-08T06:20:31.174Z,22.17
2017-07-08T06:22:59.504Z,22.25
2017-07-08T06:25:27.859Z,22.27
2017-07-08T06:27:56.609Z,22.20
2017-07-08T06:30:24.943Z,22.22
2017-07-08T06:32:53.302Z,22.29
2017-07-08T06:35:22.077Z,22.34
2017-07-08T06:37:50.406Z,22.38
2017-07-08T06:40:18.788Z,22.51
2017-07-08T06:42:47.542Z,22.43
2017-07-08T06:45:15.889Z,22.49
2017-07-08T06:47:44.272Z,22.42
2017-07-08T06:50:13.056Z,22.18
2017-07-08T06:52:42.162Z,22.26
2017-07-08T06:55:10.535Z,22.34
2017-07-08T06:57:39.528Z,22.27
2017-07-08T07:00:07.890Z,22.31
2017-07-08T07:02:36.268Z,22.27
2017-07-08T07:05:05.686Z,22.53
2017-07-08T07:07:34.058Z,22.44
2017-07-08T07:10:03.187Z,22.88
2017-07-08T07:12:31.874Z,23.03
2017-07-08T07:15:00.234Z,23.14
2017-07-08T07:17:28.591Z,23.32
2017-07-08T07:19:57.388Z,23.24
2017-07-08T07:22:25.738Z,23.38
2017-07-08T07:24:54.085Z,23.46
2017-07-08T07:27:22.919Z,23.70
2017-07-08T07:29:52.064Z,24.04
2017-07-08T07:32:20.418Z,24.08
2017-07-08T07:34:49.102Z,24.26
2017-07-08T07:37:17.443Z,24.24
2017-07-08T07:39:45.811Z,24.29
2017-07-08T07:42:14.769Z,24.28
2017-07-08T07:44:43.100Z,24.30
2017-07-08T07:47:11.449Z,24.75
2017-07-08T07:49:40.207Z,25.02
2017-07-08T07:52:08.542Z,24.91
2017-07-08T07:54:36.894Z,24.99
2017-07-08T07:57:05.537Z,25.09
2017-07-08T07:59:34.647Z,25.22
2017-07-08T08:02:02.997Z,25.48
2017-07-08T08:04:32.123Z,25.47
2017-07-08T08:07:00.459Z,25.71
2017-07-08T08:09:28.803Z,25.37
2017-07-08T08:11:57.562Z,25.52
2017-07-08T08:14:25.912Z,25.81
2017-07-08T08:16:54.243Z,26.27
2017-07-08T08:19:22.860Z,27.08
2017-07-08T08:21:51.213Z,26.91
2017-07-08T08:24:19.562Z,26.84
2017-07-08T08:26:48.711Z,27.24
2017-07-08T08:29:17.085Z,27.39
2017-07-08T08:31:45.432Z,27.59
2017-07-08T08:34:14.099Z,27.24
2017-07-08T08:36:42.612Z,26.90
2017-07-08T08:39:10.962Z,26.81
2017-07-08T08:41:39.621Z,26.85
2017-07-08T08:44:07.968Z,26.98
2017-07-08T08:46:36.315Z,27.44
2017-07-08T08:49:05.406Z,27.50
2017-07-08T08:51:33.815Z,27.78
2017-07-08T08:54:02.149Z,28.14
2017-07-08T08:56:30.833Z,28.44
2017-07-08T08:58:59.230Z,28.06
2017-07-08T09:01:27.590Z,27.86
2017-07-08T09:03:56.241Z,28.24
2017-07-08T09:06:24.595Z,28.37
2017-07-08T09:08:52.929Z,27.90
2017-07-08T09:11:22.503Z,28.04
2017-07-08T09:13:50.853Z,27.89
2017-07-08T09:16:19.201Z,28.26
2017-07-08T09:18:48.603Z,28.75
2017-07-08T09:21:16.948Z,28.87
2017-07-08T09:23:45.328Z,29.01
2017-07-08T09:26:14.279Z,28.61
2017-07-08T09:28:42.652Z,28.66
2017-07-08T09:31:10.984Z,29.03
2017-07-08T09:33:40.135Z,29.56
2017-07-08T09:36:08.507Z,29.37
2017-07-08T09:38:36.854Z,29.14
2017-07-08T09:41:05.545Z,29.02
2017-07-08T09:43:33.886Z,28.70
2017-07-08T09:46:02.312Z,29.23
2017-07-08T09:48:30.988Z,29.55
2017-07-08T09:50:59.463Z,29.92
2017-07-08T09:53:27.835Z,29.69
2017-07-08T09:55:56.671Z,29.54
2017-07-08T09:58:25.095Z,29.40
2017-07-08T10:00:53.568Z,29.61
2017-07-08T10:03:22.248Z,29.62
2017-07-08T10:05:50.661Z,29.74
2017-07-08T10:08:19.071Z,29.51
2017-07-08T10:10:47.744Z,28.94
2017-07-08T10:13:16.117Z,28.95
2017-07-08T10:15:45.294Z,29.00
2017-07-08T10:18:14.266Z,29.50
2017-07-08T10:20:42.618Z,29.18
2017-07-08T10:23:10.978Z,29.10
2017-07-08T10:25:39.692Z,28.96
2017-07-08T10:28:08.075Z,29.06
2017-07-08T10:30:36.476Z,29.32
2017-07-08T10:33:05.165Z,29.68
2017-07-08T10:35:33.606Z,29.73
2017-07-08T10:38:02.017Z,29.68
2017-07-08T10:40:30.992Z,29.75
2017-07-08T10:42:59.357Z,30.23
2017-07-08T10:45:27.713Z,30.39
2017-07-08T10:47:56.667Z,30.51
2017-07-08T10:50:25.009Z,30.67
2017-07-08T10:52:53.377Z,31.04
2017-07-08T10:55:22.077Z,30.90
2017-07-08T10:57:50.465Z,30.57
2017-07-08T11:00:18.848Z,30.42
2017-07-08T11:02:48.132Z,30.32
2017-07-08T11:05:16.472Z,30.32
2017-07-08T11:07:44.828Z,30.85
2017-07-08T11:10:13.783Z,30.93
2017-07-08T11:12:42.179Z,30.91
2017-07-08T11:15:10.550Z,30.41
2017-07-08T11:17:39.441Z,30.38
2017-07-08T11:20:07.912Z,30.33
2017-07-08T11:22:36.264Z,30.20
2017-07-08T11:25:05.513Z,30.01
2017-07-08T11:27:33.862Z,29.60
2017-07-08T11:30:03.030Z,29.07
2017-07-08T11:32:31.881Z,29.26
2017-07-08T11:35:00.278Z,29.93
2017-07-08T11:37:28.771Z,30.34
2017-07-08T11:39:57.436Z,30.65
2017-07-08T11:42:25.885Z,30.74
2017-07-08T11:44:54.274Z,30.61
2017-07-08T11:47:23.412Z,30.85
2017-07-08T11:49:51.763Z,30.70
2017-07-08T11:52:20.134Z,30.82
2017-07-08T11:54:48.917Z,30.26
2017-07-08T11:57:17.272Z,30.16
2017-07-08T11:59:46.449Z,29.71
2017-07-08T12:02:15.442Z,29.24
2017-07-08T12:04:43.816Z,29.03
2017-07-08T12:07:12.136Z,28.69
2017-07-08T12:09:41.060Z,28.59
2017-07-08T12:12:09.431Z,27.71
2017-07-08T12:14:37.820Z,27.75
2017-07-08T12:17:06.516Z,27.79
2017-07-08T12:19:34.921Z,27.80
2017-07-08T12:22:03.327Z,27.69
2017-07-08T12:24:32.735Z,27.45
2017-07-08T12:27:01.082Z,27.34
2017-07-08T12:29:29.540Z,27.45
2017-07-08T12:31:58.391Z,27.25
2017-07-08T12:34:26.775Z,27.54
2017-07-08T12:36:55.136Z,27.89
2017-07-08T12:39:23.823Z,28.02
2017-07-08T12:41:52.192Z,28.28
2017-07-08T12:44:21.439Z,28.43
2017-07-08T12:46:50.053Z,28.48
2017-07-08T12:49:18.415Z,28.14
2017-07-08T12:51:46.860Z,28.73
2017-07-08T12:54:15.916Z,29.34
2017-07-08T12:56:44.309Z,29.09
2017-07-08T12:59:13.483Z,29.18
2017-07-08T13:01:42.435Z,29.11
2017-07-08T13:04:10.857Z,29.40
2017-07-08T13:06:39.267Z,29.45
2017-07-08T13:09:08.876Z,29.06
2017-07-08T13:11:37.227Z,28.74
2017-07-08T13:14:05.612Z,28.30
2017-07-08T13:16:34.559Z,28.08
2017-07-08T13:19:03.010Z,28.41
2017-07-08T13:21:31.393Z,28.37
2017-07-08T13:24:00.927Z,28.04
2017-07-08T13:26:29.326Z,28.51
2017-07-08T13:28:57.724Z,28.76
2017-07-08T13:31:26.526Z,28.51
2017-07-08T13:33:54.912Z,28.38
2017-07-08T13:36:23.284Z,28.41
2017-07-08T13:38:52.058Z,28.28
2017-07-08T13:41:20.432Z,28.46
2017-07-08T13:43:48.797Z,27.90
2017-07-08T13:46:17.566Z,27.90
2017-07-08T13:48:45.946Z,27.43
2017-07-08T13:51:14.375Z,26.76
2017-07-08T13:53:43.096Z,26.54
2017-07-08T13:56:11.500Z,26.53
2017-07-08T13:58:39.859Z,26.45
2017-07-08T14:01:08.710Z,26.38
2017-07-08T14:03:37.083Z,26.33
2017-07-08T14:06:05.452Z,26.44
2017-07-08T14:08:34.300Z,26.19
2017-07-08T14:11:02.698Z,25.91
2017-07-08T14:13:31.115Z,26.03
2017-07-08T14:15:59.978Z,25.72
2017-07-08T14:18:28.378Z,25.47
2017-07-08T14:20:56.741Z,25.55
2017-07-08T14:23:25.638Z,25.29
2017-07-08T14:25:54.062Z,25.27
2017-07-08T14:28:22.439Z,25.34
2017-07-08T14:30:51.846Z,25.44
2017-07-08T14:33:20.229Z,25.48
2017-07-08T14:35:48.609Z,25.12
2017-07-08T14:38:17.306Z,24.93
2017-07-08T14:40:45.713Z,25.23
2017-07-08T14:43:14.167Z,24.98
2017-07-08T14:45:43.380Z,25.11
2017-07-08T14:48:11.780Z,25.32
2017-07-08T14:50:40.167Z,25.33
2017-07-08T14:53:09.034Z,25.27
2017-07-08T14:55:37.387Z,25.14
2017-07-08T14:58:05.751Z,25.03
2017-07-08T15:00:34.372Z,25.15
2017-07-08T15:03:02.775Z,25.41
2017-07-08T15:05:31.136Z,25.44
2017-07-08T15:07:59.896Z,25.66
2017-07-08T15:10:28.312Z,25.61
2017-07-08T15:12:56.752Z,25.84
2017-07-08T15:15:26.489Z,25.92
2017-07-08T15:17:54.871Z,25.95
2017-07-08T15:20:23.244Z,26.10
2017-07-08T15:22:51.903Z,26.23
2017-07-08T15:25:21.090Z,26.37
2017-07-08T15:27:49.459Z,26.55
2017-07-08T15:30:18.494Z,26.44
2017-07-08T15:32:46.891Z,25.97
2017-07-08T15:35:15.299Z,26.07
2017-07-08T15:37:43.956Z,26.07
2017-07-08T15:40:12.379Z,26.48
2017-07-08T15:42:40.798Z,26.40
2017-07-08T15:45:09.587Z,26.33
2017-07-08T15:47:38.003Z,26.52
2017-07-08T15:50:06.423Z,26.91
2017-07-08T15:52:35.233Z,26.73
2017-07-08T15:55:03.614Z,27.18
2017-07-08T15:57:32.002Z,27.41
2017-07-08T16:00:00.918Z,27.45
2017-07-08T16:02:29.312Z,27.27
2017-07-08T16:04:57.686Z,27.01
2017-07-08T16:07:26.340Z,27.19
2017-07-08T16:09:54.755Z,27.23
2017-07-08T16:12:23.112Z,27.19
2017-07-08T16:14:51.988Z,27.31
2017-07-08T16:17:20.345Z,27.45
2017-07-08T16:19:49.476Z,27.32
2017-07-08T16:22:18.150Z,27.42
2017-07-08T16:24:46.563Z,27.00
2017-07-08T16:27:14.913Z,26.58
2017-07-08T16:29:43.694Z,26.65
2017-07-08T16:32:12.060Z,26.85
2017-07-08T16:34:41.163Z,26.74
2017-07-08T16:37:10.698Z,26.85
2017-07-08T16:39:39.019Z,26.71
2017-07-08T16:42:07.371Z,26.76
2017-07-08T16:44:36.013Z,27.21
2017-07-08T16:47:04.368Z,27.45
2017-07-08T16:49:32.803Z,27.53
2017-07-08T16:52:01.464Z,27.54
2017-07-08T16:54:29.841Z,27.27
2017-07-08T16:56:58.243Z,27.24
2017-07-08T16:59:27.000Z,26.77
2017-07-08T17:01:56.123Z,26.79
2017-07-08T17:04:24.495Z,26.71
2017-07-08T17:06:53.169Z,26.93
2017-07-08T17:09:21.512Z,26.86
2017-07-08T17:11:49.870Z,26.84
2017-07-08T17:14:19.456Z,26.93
2017-07-08T17:16:47.802Z,26.72
2017-07-08T17:19:16.142Z,26.56
2017-07-08T17:21:45.091Z,26.45
2017-07-08T17:24:13.470Z,26.62
2017-07-08T17:26:41.817Z,26.59
2017-07-08T17:29:10.449Z,26.64
2017-07-08T17:31:38.774Z,26.64
2017-07-08T17:34:07.101Z,26.66
2017-07-08T17:36:35.788Z,26.68
2017-07-08T17:39:04.150Z,26.76
2017-07-08T17:41:33.295Z,26.73
2017-07-08T17:44:02.405Z,26.28
2017-07-08T17:46:30.735Z,25.98
2017-07-08T17:48:59.086Z,25.89
2017-07-08T17:51:27.783Z,26.16
2017-07-08T17:53:56.122Z,26.21
2017-07-08T17:56:24.475Z,26.13
2017-07-08T17:58:53.133Z,26.16
2017-07-08T18:01:21.498Z,26.16
2017-07-08T18:03:50.585Z,25.80
2017-07-08T18:06:19.554Z,25.73
2017-07-08T18:08:47.921Z,25.84
2017-07-08T18:11:16.275Z,25.93
2017-07-08T18:13:44.943Z,25.79
2017-07-08T18:16:13.286Z,25.47
2017-07-08T18:18:41.642Z,25.37
2017-07-08T18:21:10.293Z,25.53
2017-07-08T18:23:38.624Z,25.64
2017-07-08T18:26:06.989Z,25.64
2017-07-08T18:28:35.790Z,25.51
2017-07-08T18:31:04.143Z,25.25
2017-07-08T18:33:32.489Z,25.29
2017-07-08T18:36:01.191Z,25.15
2017-07-08T18:38:29.530Z,25.05
2017-07-08T18:40:57.871Z,24.89
2017-07-08T18:43:26.650Z,24.98
2017-07-08T18:45:54.998Z,24.89
2017-07-08T18:48:24.118Z,24.77
2017-07-08T18:50:52.958Z,24.69
2017-07-08T18:53:21.276Z,24.66
2017-07-08T18:55:49.630Z,24.33
2017-07-08T18:58:18.605Z,24.18
2017-07-08T19:00:46.937Z,24.40
2017-07-08T19:03:15.290Z,24.47
2017-07-08T19:05:43.989Z,24.46
2017-07-08T19:08:12.344Z,24.44
2017-07-08T19:10:41.460Z,24.38
2017-07-08T19:13:10.386Z,24.24
2017-07-08T19:15:38.721Z,23.94
2017-07-08T19:18:07.070Z,23.97
2017-07-08T19:20:35.724Z,23.67
2017-07-08T19:23:04.052Z,23.76
2017-07-08T19:25:32.397Z,23.76
2017-07-08T19:28:01.141Z,23.67
2017-07-08T19:30:29.507Z,23.65
2017-07-08T19:32:58.594Z,23.60
2017-07-08T19:35:27.264Z,23.51
2017-07-08T19:37:55.653Z,23.56
2017-07-08T19:40:23.985Z,23.45
2017-07-08T19:42:52.614Z,23.49
2017-07-08T19:45:20.982Z,23.36
2017-07-08T19:47:49.320Z,23.39
2017-07-08T19:50:18.096Z,23.26
2017-07-08T19:52:46.426Z,23.22
2017-07-08T19:55:14.764Z,23.11
2017-07-08T19:57:43.763Z,23.05
2017-07-08T20:00:12.134Z,23.08
2017-07-08T20:02:40.465Z,23.02
2017-07-08T20:05:09.124Z,22.97
2017-07-08T20:07:37.517Z,22.86
2017-07-08T20:10:05.909Z,22.97
2017-07-08T20:12:34.647Z,22.81
2017-07-08T20:15:03.001Z,22.72
2017-07-08T20:17:31.345Z,22.69
2017-07-08T20:20:00.132Z,22.79
2017-07-08T20:22:28.494Z,22.80
2017-07-08T20:24:56.839Z,22.86
2017-07-08T20:27:25.487Z,22.80
2017-07-08T20:29:53.825Z,22.67
2017-07-08T20:32:22.173Z,22.67
2017-07-08T20:34:51.607Z,22.67
2017-07-08T20:37:19.954Z,22.43
2017-07-08T20:39:48.299Z,22.22
2017-07-08T20:42:17.236Z,22.19
2017-07-08T20:44:45.607Z,22.24
2017-07-08T20:47:14.741Z,22.01
2017-07-08T20:49:43.410Z,21.90
2017-07-08T20:52:11.771Z,21.90
2017-07-08T20:54:40.112Z,21.81
2017-07-08T20:57:08.762Z,21.81
2017-07-08T20:59:37.102Z,21.73
2017-07-08T21:02:05.450Z,21.65
2017-07-08T21:04:34.294Z,21.55
2017-07-08T21:07:02.657Z,21.44
2017-07-08T21:09:31.011Z,21.27
2017-07-08T21:11:59.985Z,21.08
2017-07-08T21:14:28.350Z,21.11
2017-07-08T21:16:56.709Z,21.12
2017-07-08T21:19:25.476Z,21.15
2017-07-08T21:21:53.828Z,21.21
2017-07-08T21:24:22.198Z,21.13
2017-07-08T21:26:51.164Z,21.04
2017-07-08T21:29:19.648Z,21.06
2017-07-08T21:31:48.011Z,20.97
2017-07-08T21:34:16.646Z,20.84
2017-07-08T21:36:44.992Z,20.98
2017-07-08T21:39:13.326Z,21.05
2017-07-08T21:41:42.253Z,21.15
2017-07-08T21:44:10.595Z,21.02
2017-07-08T21:46:39.693Z,20.95
2017-07-08T21:49:09.296Z,20.93
2017-07-08T21:51:37.694Z,20.91
2017-07-08T21:54:06.805Z,20.80
2017-07-08T21:56:35.512Z,20.63
2017-07-08T21:59:03.862Z,20.62
2017-07-08T22:01:32.206Z,20.65
2017-07-08T22:04:00.881Z,20.75
2017-07-08T22:06:29.250Z,20.63
2017-07-08T22:08:57.593Z,20.59
2017-07-08T22:11:26.487Z,20.57
2017-07-08T22:13:54.833Z,20.45
2017-07-08T22:16:23.953Z,20.58
2017-07-08T22:18:52.598Z,20.56
2017-07-08T22:21:20.947Z,20.49
2017-07-08T22:23:49.292Z,20.43
2017-07-08T22:26:17.978Z,20.37
2017-07-08T22:28:46.310Z,20.38
2017-07-08T22:31:14.657Z,20.36
2017-07-08T22:33:43.387Z,20.41
2017-07-08T22:36:11.758Z,20.39
2017-07-08T22:38:40.088Z,20.34
2017-07-08T22:41:08.889Z,20.18
2017-07-08T22:43:37.240Z,20.05
2017-07-08T22:46:06.379Z,19.91
2017-07-08T22:48:35.067Z,19.78
2017-07-08T22:51:03.430Z,20.02
2017-07-08T22:53:31.794Z,19.89
2017-07-08T22:56:01.000Z,19.97
2017-07-08T22:58:29.348Z,20.14
2017-07-08T23:00:58.482Z,20.04
2017-07-08T23:03:27.141Z,20.08
2017-07-08T23:05:56.297Z,19.93
2017-07-08T23:08:24.635Z,19.97
2017-07-08T23:10:53.259Z,20.00
2017-07-08T23:13:21.616Z,20.08
2017-07-08T23:15:49.959Z,19.98
2017-07-08T23:18:19.480Z,19.91
2017-07-08T23:20:47.815Z,19.84
2017-07-08T23:23:16.144Z,19.81
2017-07-08T23:25:44.909Z,19.73
2017-07-08T23:28:14.024Z,19.45
2017-07-08T23:30:42.362Z,19.56
2017-07-08T23:33:11.077Z,19.53
2017-07-08T23:35:39.448Z,19.37
2017-07-08T23:38:07.801Z,19.41
2017-07-08T23:40:36.469Z,19.56
2017-07-08T23:43:04.834Z,19.67
2017-07-08T23:45:33.183Z,19.55
2017-07-08T23:48:01.930Z,19.47
2017-07-08T23:50:30.249Z,19.38
2017-07-08T23:52:58.595Z,19.48
2017-07-08T23:55:27.408Z,19.35
2017-07-08T23:57:55.787Z,19.31
